sensor_id;sensor_type;location;lat;lon;timestamp;pressure;altitude;pressure_sealevel;temperature;humidity
19789;BME280;10054;59.332;18.244;2023-01-27T00:01:40;102181.05;;;-1.77;100.00
19789;BME280;10054;59.332;18.244;2023-01-27T00:04:09;102177.19;;;-1.75;100.00
19789;BME280;10054;59.332;18.244;2023-01-27T00:06:38;102179.33;;;-1.76;100.00
19789;BME280;10054;59.332;18.244;2023-01-27T00:09:06;102184.91;;;-1.78;100.00
19789;BME280;10054;59.332;18.244;2023-01-27T00:11:35;102178.89;;;-1.77;100.00
19789;BME280;10054;59.332;18.244;2023-01-27T00:14:22;102191.41;;;-1.75;100.00
19789;BME280;10054;59.332;18.244;2023-01-27T00:16:52;102185.33;;;-1.79;100.00
19789;BME280;10054;59.332;18.244;2023-01-27T00:19:20;102188.33;;;-1.81;100.00
19789;BME280;10054;59.332;18.244;2023-01-27T00:21:49;102197.38;;;-1.81;100.00
19789;BME280;10054;59.332;18.244;2023-01-27T00:24:35;102197.40;;;-1.79;100.00
19789;BME280;10054;59.332;18.244;2023-01-27T00:27:05;102195.23;;;-1.80;100.00
19789;BME280;10054;59.332;18.244;2023-01-27T00:29:39;102196.48;;;-1.83;100.00
19789;BME280;10054;59.332;18.244;2023-01-27T00:32:08;102196.91;;;-1.83;100.00
19789;BME280;10054;59.332;18.244;2023-01-27T00:34:55;102203.82;;;-1.82;100.00
19789;BME280;10054;59.332;18.244;2023-01-27T00:37:25;102199.05;;;-1.84;100.00
19789;BME280;10054;59.332;18.244;2023-01-27T00:39:54;102200.79;;;-1.83;100.00
19789;BME280;10054;59.332;18.244;2023-01-27T00:42:23;102202.51;;;-1.84;100.00
19789;BME280;10054;59.332;18.244;2023-01-27T00:44:52;102200.79;;;-1.83;100.00
19789;BME280;10054;59.332;18.244;2023-01-27T00:47:25;102204.69;;;-1.82;100.00
19789;BME280;10054;59.332;18.244;2023-01-27T00:49:54;102206.81;;;-1.84;100.00
19789;BME280;10054;59.332;18.244;2023-01-27T00:52:23;102208.11;;;-1.84;100.00
19789;BME280;10054;59.332;18.244;2023-01-27T00:54:52;102196.91;;;-1.83;100.00
19789;BME280;10054;59.332;18.244;2023-01-27T00:57:20;102200.37;;;-1.83;100.00
19789;BME280;10054;59.332;18.244;2023-01-27T00:59:49;102215.40;;;-1.87;100.00
19789;BME280;10054;59.332;18.244;2023-01-27T01:02:18;102214.08;;;-1.88;100.00
19789;BME280;10054;59.332;18.244;2023-01-27T01:04:47;102207.17;;;-1.89;100.00
19789;BME280;10054;59.332;18.244;2023-01-27T01:07:16;102203.27;;;-1.91;100.00
19789;BME280;10054;59.332;18.244;2023-01-27T01:09:45;102204.92;;;-1.96;100.00
19789;BME280;10054;59.332;18.244;2023-01-27T01:12:13;102203.98;;;-2.01;100.00
19789;BME280;10054;59.332;18.244;2023-01-27T01:14:42;102205.70;;;-2.02;100.00
19789;BME280;10054;59.332;18.244;2023-01-27T01:17:12;102208.29;;;-2.02;100.00
19789;BME280;10054;59.332;18.244;2023-01-27T01:19:41;102207.80;;;-2.06;100.00
19789;BME280;10054;59.332;18.244;2023-01-27T01:22:10;102202.56;;;-2.10;100.00
19789;BME280;10054;59.332;18.244;2023-01-27T01:24:40;102197.39;;;-2.10;100.00
19789;BME280;10054;59.332;18.244;2023-01-27T01:27:11;102192.23;;;-2.09;100.00
19789;BME280;10054;59.332;18.244;2023-01-27T01:29:39;102189.63;;;-2.10;100.00
19789;BME280;10054;59.332;18.244;2023-01-27T01:32:08;102187.49;;;-2.09;100.00
19789;BME280;10054;59.332;18.244;2023-01-27T01:34:37;102181.45;;;-2.10;100.00
19789;BME280;10054;59.332;18.244;2023-01-27T01:37:06;102178.06;;;-2.06;100.00
19789;BME280;10054;59.332;18.244;2023-01-27T01:39:34;102181.05;;;-2.08;100.00
19789;BME280;10054;59.332;18.244;2023-01-27T01:42:03;102179.69;;;-2.12;100.00
19789;BME280;10054;59.332;18.244;2023-01-27T01:44:32;102185.70;;;-2.13;100.00
19789;BME280;10054;59.332;18.244;2023-01-27T01:47:02;102179.25;;;-2.13;100.00
19789;BME280;10054;59.332;18.244;2023-01-27T01:49:36;102180.54;;;-2.13;100.00
19789;BME280;10054;59.332;18.244;2023-01-27T01:52:12;102188.27;;;-2.15;100.00
19789;BME280;10054;59.332;18.244;2023-01-27T01:54:46;102187.34;;;-2.20;100.00
19789;BME280;10054;59.332;18.244;2023-01-27T01:57:29;102194.27;;;-2.17;100.00
19789;BME280;10054;59.332;18.244;2023-01-27T02:00:03;102186.94;;;-2.18;100.00
19789;BME280;10054;59.332;18.244;2023-01-27T02:02:35;102175.70;;;-2.20;100.00
19789;BME280;10054;59.332;18.244;2023-01-27T02:05:12;102180.86;;;-2.23;100.00
19789;BME280;10054;59.332;18.244;2023-01-27T02:07:49;102179.98;;;-2.23;100.00
19789;BME280;10054;59.332;18.244;2023-01-27T02:10:17;102183.84;;;-2.25;100.00
19789;BME280;10054;59.332;18.244;2023-01-27T02:12:46;102181.59;;;-2.32;100.00
19789;BME280;10054;59.332;18.244;2023-01-27T02:15:15;102182.36;;;-2.37;100.00
19789;BME280;10054;59.332;18.244;2023-01-27T02:17:45;102196.13;;;-2.38;100.00
19789;BME280;10054;59.332;18.244;2023-01-27T02:20:21;102195.66;;;-2.41;100.00
19789;BME280;10054;59.332;18.244;2023-01-27T02:25:46;102189.03;;;-2.51;100.00
19789;BME280;10054;59.332;18.244;2023-01-27T02:28:16;102203.71;;;-2.49;100.00
19789;BME280;10054;59.332;18.244;2023-01-27T02:30:44;102205.41;;;-2.51;100.00
19789;BME280;10054;59.332;18.244;2023-01-27T02:33:14;102207.95;;;-2.52;100.00
19789;BME280;10054;59.332;18.244;2023-01-27T02:35:59;102207.51;;;-2.53;100.00
19789;BME280;10054;59.332;18.244;2023-01-27T02:38:32;102208.83;;;-2.52;100.00
19789;BME280;10054;59.332;18.244;2023-01-27T02:41:13;102223.95;;;-2.48;100.00
19789;BME280;10054;59.332;18.244;2023-01-27T02:43:36;102217.42;;;-2.53;100.00
19789;BME280;10054;59.332;18.244;2023-01-27T02:46:07;102225.48;;;-2.59;100.00
19789;BME280;10054;59.332;18.244;2023-01-27T02:48:36;102218.16;;;-2.60;100.00
19789;BME280;10054;59.332;18.244;2023-01-27T02:51:05;102220.34;;;-2.58;100.00
19789;BME280;10054;59.332;18.244;2023-01-27T02:53:35;102227.66;;;-2.59;100.00
19789;BME280;10054;59.332;18.244;2023-01-27T02:56:05;102236.70;;;-2.59;100.00
19789;BME280;10054;59.332;18.244;2023-01-27T02:58:34;102243.13;;;-2.60;100.00
19789;BME280;10054;59.332;18.244;2023-01-27T03:01:05;102228.89;;;-2.62;100.00
19789;BME280;10054;59.332;18.244;2023-01-27T03:03:36;102244.34;;;-2.65;100.00
19789;BME280;10054;59.332;18.244;2023-01-27T03:06:06;102245.07;;;-2.72;100.00
19789;BME280;10054;59.332;18.244;2023-01-27T03:08:35;102231.18;;;-2.79;100.00
19789;BME280;10054;59.332;18.244;2023-01-27T03:11:06;102240.69;;;-2.76;100.00
19789;BME280;10054;59.332;18.244;2023-01-27T03:13:36;102239.43;;;-2.75;100.00
19789;BME280;10054;59.332;18.244;2023-01-27T03:16:05;102236.79;;;-2.78;100.00
19789;BME280;10054;59.332;18.244;2023-01-27T03:18:54;102242.75;;;-2.82;100.00
19789;BME280;10054;59.332;18.244;2023-01-27T03:21:23;102244.94;;;-2.80;100.00
19789;BME280;10054;59.332;18.244;2023-01-27T03:23:51;102239.82;;;-2.77;100.00
19789;BME280;10054;59.332;18.244;2023-01-27T03:26:22;102241.93;;;-2.79;100.00
19789;BME280;10054;59.332;18.244;2023-01-27T03:28:52;102236.73;;;-2.81;100.00
19789;BME280;10054;59.332;18.244;2023-01-27T03:31:24;102232.02;;;-2.80;100.00
19789;BME280;10054;59.332;18.244;2023-01-27T03:33:54;102235.50;;;-2.78;100.00
19789;BME280;10054;59.332;18.244;2023-01-27T03:36:30;102228.54;;;-2.82;100.00
19789;BME280;10054;59.332;18.244;2023-01-27T03:39:17;102231.52;;;-2.84;100.00
19789;BME280;10054;59.332;18.244;2023-01-27T03:42:04;102232.78;;;-2.85;100.00
19789;BME280;10054;59.332;18.244;2023-01-27T03:44:51;102233.65;;;-2.85;100.00
19789;BME280;10054;59.332;18.244;2023-01-27T03:47:37;102233.20;;;-2.86;100.00
19789;BME280;10054;59.332;18.244;2023-01-27T03:50:07;102231.83;;;-2.90;100.00
19789;BME280;10054;59.332;18.244;2023-01-27T03:52:37;102220.96;;;-2.96;100.00
19789;BME280;10054;59.332;18.244;2023-01-27T03:55:07;102223.52;;;-2.99;100.00
19789;BME280;10054;59.332;18.244;2023-01-27T03:57:36;102223.97;;;-2.97;100.00
19789;BME280;10054;59.332;18.244;2023-01-27T04:00:06;102229.19;;;-2.93;100.00
19789;BME280;10054;59.332;18.244;2023-01-27T04:02:37;102229.63;;;-2.92;100.00
19789;BME280;10054;59.332;18.244;2023-01-27T04:05:24;102229.30;;;-2.87;100.00
19789;BME280;10054;59.332;18.244;2023-01-27T04:08:11;102226.09;;;-2.49;100.00
19789;BME280;10054;59.332;18.244;2023-01-27T04:10:39;102223.27;;;-2.38;100.00
19789;BME280;10054;59.332;18.244;2023-01-27T04:13:10;102226.49;;;-2.51;100.00
19789;BME280;10054;59.332;18.244;2023-01-27T04:15:38;102221.94;;;-2.66;100.00
19789;BME280;10054;59.332;18.244;2023-01-27T04:18:09;102226.06;;;-2.76;100.00
19789;BME280;10054;59.332;18.244;2023-01-27T04:20:38;102228.14;;;-2.80;100.00
19789;BME280;10054;59.332;18.244;2023-01-27T04:23:07;102229.44;;;-2.80;100.00
19789;BME280;10054;59.332;18.244;2023-01-27T04:25:36;102232.86;;;-2.81;100.00
19789;BME280;10054;59.332;18.244;2023-01-27T04:28:06;102241.03;;;-2.81;100.00
19789;BME280;10054;59.332;18.244;2023-01-27T04:30:35;102237.16;;;-2.81;100.00
19789;BME280;10054;59.332;18.244;2023-01-27T04:33:03;102244.88;;;-2.83;100.00
19789;BME280;10054;59.332;18.244;2023-01-27T04:35:34;102251.33;;;-2.83;100.00
19789;BME280;10054;59.332;18.244;2023-01-27T04:38:02;102255.20;;;-2.83;100.00
19789;BME280;10054;59.332;18.244;2023-01-27T04:40:31;102262.50;;;-2.84;100.00
19789;BME280;10054;59.332;18.244;2023-01-27T04:43:00;102259.50;;;-2.83;100.00
19789;BME280;10054;59.332;18.244;2023-01-27T04:45:28;102268.54;;;-2.83;100.00
19789;BME280;10054;59.332;18.244;2023-01-27T04:47:57;102267.64;;;-2.85;100.00
19789;BME280;10054;59.332;18.244;2023-01-27T04:50:26;102259.02;;;-2.86;100.00
19789;BME280;10054;59.332;18.244;2023-01-27T04:52:54;102258.55;;;-2.88;100.00
19789;BME280;10054;59.332;18.244;2023-01-27T04:55:24;102260.73;;;-2.86;100.00
19789;BME280;10054;59.332;18.244;2023-01-27T04:57:53;102264.19;;;-2.62;100.00
19789;BME280;10054;59.332;18.244;2023-01-27T05:00:22;102260.39;;;-2.58;100.00
19789;BME280;10054;59.332;18.244;2023-01-27T05:02:50;102255.94;;;-2.67;100.00
19789;BME280;10054;59.332;18.244;2023-01-27T05:05:19;102256.58;;;-2.78;100.00
19789;BME280;10054;59.332;18.244;2023-01-27T05:07:48;102254.30;;;-2.85;100.00
19789;BME280;10054;59.332;18.244;2023-01-27T05:10:16;102255.09;;;-2.89;100.00
19789;BME280;10054;59.332;18.244;2023-01-27T05:12:45;102268.78;;;-2.93;100.00
19789;BME280;10054;59.332;18.244;2023-01-27T05:15:14;102267.86;;;-2.97;100.00
19789;BME280;10054;59.332;18.244;2023-01-27T05:17:42;102266.52;;;-3.01;100.00
19789;BME280;10054;59.332;18.244;2023-01-27T05:20:12;102275.09;;;-3.02;100.00
19789;BME280;10054;59.332;18.244;2023-01-27T05:22:41;102266.81;;;-3.08;100.00
19789;BME280;10054;59.332;18.244;2023-01-27T05:25:09;102269.72;;;-3.13;100.00
19789;BME280;10054;59.332;18.244;2023-01-27T05:27:39;102273.56;;;-3.14;100.00
19789;BME280;10054;59.332;18.244;2023-01-27T05:30:09;102290.73;;;-3.16;100.00
19789;BME280;10054;59.332;18.244;2023-01-27T05:32:38;102292.86;;;-3.17;100.00
19789;BME280;10054;59.332;18.244;2023-01-27T05:35:07;102298.83;;;-3.20;100.00
19789;BME280;10054;59.332;18.244;2023-01-27T05:37:35;102294.89;;;-3.23;100.00
19789;BME280;10054;59.332;18.244;2023-01-27T05:40:04;102293.18;;;-3.22;100.00
19789;BME280;10054;59.332;18.244;2023-01-27T05:42:35;102290.92;;;-3.27;100.00
19789;BME280;10054;59.332;18.244;2023-01-27T05:45:04;102282.17;;;-3.14;100.00
19789;BME280;10054;59.332;18.244;2023-01-27T05:47:33;102277.05;;;-2.66;100.00
19789;BME280;10054;59.332;18.244;2023-01-27T05:50:01;102274.02;;;-2.67;100.00
19789;BME280;10054;59.332;18.244;2023-01-27T05:52:30;102282.69;;;-2.86;100.00
19789;BME280;10054;59.332;18.244;2023-01-27T05:54:59;102289.53;;;-3.12;100.00
19789;BME280;10054;59.332;18.244;2023-01-27T05:57:27;102289.16;;;-3.30;100.00
19789;BME280;10054;59.332;18.244;2023-01-27T05:59:56;102290.56;;;-3.44;100.00
19789;BME280;10054;59.332;18.244;2023-01-27T06:02:24;102288.23;;;-3.52;100.00
19789;BME280;10054;59.332;18.244;2023-01-27T06:04:53;102282.17;;;-3.54;100.00
19789;BME280;10054;59.332;18.244;2023-01-27T06:07:21;102284.75;;;-3.54;100.00
19789;BME280;10054;59.332;18.244;2023-01-27T06:09:50;102290.30;;;-3.56;100.00
19789;BME280;10054;59.332;18.244;2023-01-27T06:12:19;102291.17;;;-3.56;100.00
19789;BME280;10054;59.332;18.244;2023-01-27T06:14:47;102293.36;;;-3.54;100.00
19789;BME280;10054;59.332;18.244;2023-01-27T06:17:16;102292.59;;;-3.50;100.00
19789;BME280;10054;59.332;18.244;2023-01-27T06:19:44;102298.27;;;-3.46;100.00
19789;BME280;10054;59.332;18.244;2023-01-27T06:22:13;102298.30;;;-3.44;100.00
19789;BME280;10054;59.332;18.244;2023-01-27T06:24:41;102300.88;;;-3.44;100.00
19789;BME280;10054;59.332;18.244;2023-01-27T06:27:10;102304.75;;;-3.44;100.00
19789;BME280;10054;59.332;18.244;2023-01-27T06:29:38;102301.75;;;-3.44;100.00
19789;BME280;10054;59.332;18.244;2023-01-27T06:32:07;102302.20;;;-3.43;100.00
19789;BME280;10054;59.332;18.244;2023-01-27T06:34:35;102304.70;;;-3.27;100.00
19789;BME280;10054;59.332;18.244;2023-01-27T06:37:04;102304.42;;;-2.75;100.00
19789;BME280;10054;59.332;18.244;2023-01-27T06:39:33;102291.53;;;-2.74;100.00
19789;BME280;10054;59.332;18.244;2023-01-27T06:42:01;102287.79;;;-2.89;100.00
19789;BME280;10054;59.332;18.244;2023-01-27T06:44:31;102297.34;;;-3.09;100.00
19789;BME280;10054;59.332;18.244;2023-01-27T06:46:59;102303.05;;;-3.23;100.00
19789;BME280;10054;59.332;18.244;2023-01-27T06:49:29;102306.28;;;-3.34;100.00
19789;BME280;10054;59.332;18.244;2023-01-27T06:51:58;102313.81;;;-3.43;100.00
19789;BME280;10054;59.332;18.244;2023-01-27T06:54:26;102317.16;;;-3.47;100.00
19789;BME280;10054;59.332;18.244;2023-01-27T06:56:55;102319.23;;;-3.51;100.00
19789;BME280;10054;59.332;18.244;2023-01-27T06:59:23;102320.90;;;-3.53;100.00
19789;BME280;10054;59.332;18.244;2023-01-27T07:01:52;102326.02;;;-3.54;100.00
19789;BME280;10054;59.332;18.244;2023-01-27T07:04:21;102322.61;;;-3.53;100.00
19789;BME280;10054;59.332;18.244;2023-01-27T07:06:52;102331.22;;;-3.53;100.00
19789;BME280;10054;59.332;18.244;2023-01-27T07:09:20;102331.15;;;-3.56;100.00
19789;BME280;10054;59.332;18.244;2023-01-27T07:11:49;102328.95;;;-3.58;100.00
19789;BME280;10054;59.332;18.244;2023-01-27T07:14:18;102327.17;;;-3.60;100.00
19789;BME280;10054;59.332;18.244;2023-01-27T07:16:47;102322.81;;;-3.63;100.00
19789;BME280;10054;59.332;18.244;2023-01-27T07:19:15;102327.45;;;-3.67;100.00
19789;BME280;10054;59.332;18.244;2023-01-27T07:21:44;102334.28;;;-3.69;100.00
19789;BME280;10054;59.332;18.244;2023-01-27T07:24:13;102336.66;;;-3.59;100.00
19789;BME280;10054;59.332;18.244;2023-01-27T07:26:41;102333.09;;;-3.07;100.00
19789;BME280;10054;59.332;18.244;2023-01-27T07:29:11;102335.25;;;-3.06;100.00
19789;BME280;10054;59.332;18.244;2023-01-27T07:31:40;102339.98;;;-3.26;100.00
19789;BME280;10054;59.332;18.244;2023-01-27T07:34:08;102340.48;;;-3.42;100.00
19789;BME280;10054;59.332;18.244;2023-01-27T07:36:39;102342.37;;;-3.54;100.00
19789;BME280;10054;59.332;18.244;2023-01-27T07:39:07;102343.45;;;-3.63;100.00
19789;BME280;10054;59.332;18.244;2023-01-27T07:41:36;102345.95;;;-3.66;100.00
19789;BME280;10054;59.332;18.244;2023-01-27T07:44:05;102340.77;;;-3.68;100.00
19789;BME280;10054;59.332;18.244;2023-01-27T07:46:33;102332.99;;;-3.69;100.00
19789;BME280;10054;59.332;18.244;2023-01-27T07:49:02;102339.44;;;-3.69;100.00
19789;BME280;10054;59.332;18.244;2023-01-27T07:51:30;102343.73;;;-3.70;100.00
19789;BME280;10054;59.332;18.244;2023-01-27T07:53:59;102344.56;;;-3.71;100.00
19789;BME280;10054;59.332;18.244;2023-01-27T07:56:27;102345.89;;;-3.69;100.00
19789;BME280;10054;59.332;18.244;2023-01-27T07:58:56;102354.11;;;-3.67;100.00
19789;BME280;10054;59.332;18.244;2023-01-27T08:01:25;102355.86;;;-3.66;100.00
19789;BME280;10054;59.332;18.244;2023-01-27T08:03:54;102349.45;;;-3.64;100.00
19789;BME280;10054;59.332;18.244;2023-01-27T08:06:24;102350.80;;;-3.61;100.00
19789;BME280;10054;59.332;18.244;2023-01-27T08:08:53;102343.14;;;-3.58;100.00
19789;BME280;10054;59.332;18.244;2023-01-27T08:11:21;102347.56;;;-3.52;100.00
19789;BME280;10054;59.332;18.244;2023-01-27T08:13:50;102338.73;;;-3.24;100.00
19789;BME280;10054;59.332;18.244;2023-01-27T08:16:18;102344.66;;;-2.86;100.00
19789;BME280;10054;59.332;18.244;2023-01-27T08:18:47;102342.53;;;-2.85;100.00
19789;BME280;10054;59.332;18.244;2023-01-27T08:21:15;102336.70;;;-2.97;100.00
19789;BME280;10054;59.332;18.244;2023-01-27T08:23:44;102349.38;;;-3.09;100.00
19789;BME280;10054;59.332;18.244;2023-01-27T08:26:15;102349.16;;;-3.20;100.00
19789;BME280;10054;59.332;18.244;2023-01-27T08:28:43;102344.31;;;-3.25;100.00
19789;BME280;10054;59.332;18.244;2023-01-27T08:31:14;102337.38;;;-3.27;100.00
19789;BME280;10054;59.332;18.244;2023-01-27T08:33:45;102338.59;;;-3.31;100.00
19789;BME280;10054;59.332;18.244;2023-01-27T08:36:16;102344.63;;;-3.30;100.00
19789;BME280;10054;59.332;18.244;2023-01-27T08:38:45;102341.25;;;-3.27;100.00
19789;BME280;10054;59.332;18.244;2023-01-27T08:41:23;102343.89;;;-3.24;100.00
19789;BME280;10054;59.332;18.244;2023-01-27T08:43:53;102342.70;;;-3.20;100.00
19789;BME280;10054;59.332;18.244;2023-01-27T08:46:22;102350.99;;;-3.14;100.00
19789;BME280;10054;59.332;18.244;2023-01-27T08:48:51;102342.89;;;-3.11;100.00
19789;BME280;10054;59.332;18.244;2023-01-27T08:51:20;102347.25;;;-3.08;100.00
19789;BME280;10054;59.332;18.244;2023-01-27T08:53:48;102341.31;;;-3.04;100.00
19789;BME280;10054;59.332;18.244;2023-01-27T08:56:17;102341.38;;;-3.01;100.00
19789;BME280;10054;59.332;18.244;2023-01-27T08:58:46;102347.90;;;-2.98;100.00
19789;BME280;10054;59.332;18.244;2023-01-27T09:01:15;102344.12;;;-2.92;100.00
19789;BME280;10054;59.332;18.244;2023-01-27T09:03:44;102344.45;;;-2.53;100.00
19789;BME280;10054;59.332;18.244;2023-01-27T09:06:13;102339.43;;;-2.19;100.00
19789;BME280;10054;59.332;18.244;2023-01-27T09:08:42;102344.18;;;-2.19;100.00
19789;BME280;10054;59.332;18.244;2023-01-27T09:11:15;102341.02;;;-2.29;100.00
19789;BME280;10054;59.332;18.244;2023-01-27T09:13:45;102332.70;;;-2.36;100.00
19789;BME280;10054;59.332;18.244;2023-01-27T09:16:13;102334.78;;;-2.40;100.00
19789;BME280;10054;59.332;18.244;2023-01-27T09:18:42;102342.09;;;-2.41;100.00
19789;BME280;10054;59.332;18.244;2023-01-27T09:21:10;102349.39;;;-2.42;100.00
19789;BME280;10054;59.332;18.244;2023-01-27T09:23:40;102353.30;;;-2.41;100.00
19789;BME280;10054;59.332;18.244;2023-01-27T09:26:09;102345.18;;;-2.37;100.00
19789;BME280;10054;59.332;18.244;2023-01-27T09:28:38;102344.45;;;-2.30;100.00
19789;BME280;10054;59.332;18.244;2023-01-27T09:31:06;102347.98;;;-2.25;100.00
19789;BME280;10054;59.332;18.244;2023-01-27T09:33:37;102344.61;;;-2.19;100.00
19789;BME280;10054;59.332;18.244;2023-01-27T09:36:16;102343.81;;;-2.15;100.00
19789;BME280;10054;59.332;18.244;2023-01-27T09:38:56;102346.05;;;-2.10;100.00
19789;BME280;10054;59.332;18.244;2023-01-27T09:55:32;102331.59;;;-1.40;100.00
19789;BME280;10054;59.332;18.244;2023-01-27T09:58:17;102334.17;;;-1.42;100.00
19789;BME280;10054;59.332;18.244;2023-01-27T10:01:06;102329.30;;;-1.53;100.00
19789;BME280;10054;59.332;18.244;2023-01-27T10:03:50;102334.75;;;-1.62;100.00
19789;BME280;10054;59.332;18.244;2023-01-27T10:06:36;102331.25;;;-1.66;100.00
19789;BME280;10054;59.332;18.244;2023-01-27T10:12:05;102331.20;;;-1.69;100.00
19789;BME280;10054;59.332;18.244;2023-01-27T10:17:19;102332.09;;;-1.67;100.00
19789;BME280;10054;59.332;18.244;2023-01-27T10:19:58;102339.41;;;-1.68;100.00
19789;BME280;10054;59.332;18.244;2023-01-27T10:25:20;102336.88;;;-1.65;100.00
19789;BME280;10054;59.332;18.244;2023-01-27T10:27:52;102336.05;;;-1.62;100.00
19789;BME280;10054;59.332;18.244;2023-01-27T10:30:36;102333.08;;;-1.59;100.00
19789;BME280;10054;59.332;18.244;2023-01-27T10:33:10;102330.98;;;-1.55;100.00
19789;BME280;10054;59.332;18.244;2023-01-27T10:35:57;102328.83;;;-1.55;100.00
19789;BME280;10054;59.332;18.244;2023-01-27T10:52:09;102328.98;;;-1.11;100.00
19789;BME280;10054;59.332;18.244;2023-01-27T10:54:52;102318.13;;;-1.15;100.00
19789;BME280;10054;59.332;18.244;2023-01-27T10:57:35;102314.63;;;-1.18;100.00
19789;BME280;10054;59.332;18.244;2023-01-27T11:00:07;102316.76;;;-1.21;100.00
19789;BME280;10054;59.332;18.244;2023-01-27T11:05:29;102314.61;;;-1.20;100.00
19789;BME280;10054;59.332;18.244;2023-01-27T11:08:00;102308.18;;;-1.17;100.00
19789;BME280;10054;59.332;18.244;2023-01-27T11:10:28;102308.66;;;-1.13;100.00
19789;BME280;10054;59.332;18.244;2023-01-27T11:12:55;102304.39;;;-1.09;100.00
19789;BME280;10054;59.332;18.244;2023-01-27T11:15:33;102307.45;;;-1.07;100.00
19789;BME280;10054;59.332;18.244;2023-01-27T11:18:17;102310.50;;;-1.04;100.00
19789;BME280;10054;59.332;18.244;2023-01-27T11:20:52;102311.42;;;-0.99;100.00
19789;BME280;10054;59.332;18.244;2023-01-27T11:23:23;102300.25;;;-0.95;100.00
19789;BME280;10054;59.332;18.244;2023-01-27T11:26:12;102294.66;;;-0.93;100.00
19789;BME280;10054;59.332;18.244;2023-01-27T11:28:58;102291.22;;;-0.92;100.00
19789;BME280;10054;59.332;18.244;2023-01-27T11:34:34;102290.19;;;-0.64;100.00
19789;BME280;10054;59.332;18.244;2023-01-27T11:39:46;102293.69;;;-0.61;100.00
19789;BME280;10054;59.332;18.244;2023-01-27T11:42:15;102288.92;;;-0.61;100.00
19789;BME280;10054;59.332;18.244;2023-01-27T11:44:45;102292.83;;;-0.60;100.00
19789;BME280;10054;59.332;18.244;2023-01-27T11:47:26;102291.09;;;-0.61;100.00
19789;BME280;10054;59.332;18.244;2023-01-27T11:49:52;102284.19;;;-0.60;100.00
19789;BME280;10054;59.332;18.244;2023-01-27T11:52:22;102282.89;;;-0.60;100.00
19789;BME280;10054;59.332;18.244;2023-01-27T11:55:00;102282.88;;;-0.62;100.00
19789;BME280;10054;59.332;18.244;2023-01-27T11:57:27;102282.89;;;-0.60;100.00
19789;BME280;10054;59.332;18.244;2023-01-27T12:00:05;102273.83;;;-0.59;100.00
19789;BME280;10054;59.332;18.244;2023-01-27T12:05:48;102279.89;;;-0.58;100.00
19789;BME280;10054;59.332;18.244;2023-01-27T12:13:53;102276.42;;;-0.59;100.00
19789;BME280;10054;59.332;18.244;2023-01-27T12:16:32;102268.22;;;-0.58;100.00
19789;BME280;10054;59.332;18.244;2023-01-27T12:19:02;102261.33;;;-0.56;100.00
19789;BME280;10054;59.332;18.244;2023-01-27T12:21:44;102264.69;;;-0.19;100.00
19789;BME280;10054;59.332;18.244;2023-01-27T12:24:18;102262.57;;;-0.13;100.00
19789;BME280;10054;59.332;18.244;2023-01-27T12:26:44;102254.74;;;-0.19;100.00
19789;BME280;10054;59.332;18.244;2023-01-27T12:29:18;102254.27;;;-0.25;100.00
19789;BME280;10054;59.332;18.244;2023-01-27T12:31:51;102255.11;;;-0.27;100.00
19789;BME280;10054;59.332;18.244;2023-01-27T12:34:37;102249.03;;;-0.31;100.00
19789;BME280;10054;59.332;18.244;2023-01-27T12:37:07;102239.92;;;-0.34;100.00
19789;BME280;10054;59.332;18.244;2023-01-27T12:42:45;102240.38;;;-0.31;100.00
19789;BME280;10054;59.332;18.244;2023-01-27T12:45:30;102242.13;;;-0.29;100.00
19789;BME280;10054;59.332;18.244;2023-01-27T12:50:53;102244.27;;;-0.31;100.00
19789;BME280;10054;59.332;18.244;2023-01-27T12:53:26;102250.73;;;-0.33;100.00
19789;BME280;10054;59.332;18.244;2023-01-27T12:58:42;102250.31;;;-0.32;100.00
19789;BME280;10054;59.332;18.244;2023-01-27T13:04:20;102236.91;;;-0.34;100.00
19789;BME280;10054;59.332;18.244;2023-01-27T13:06:56;102233.86;;;-0.36;100.00
19789;BME280;10054;59.332;18.244;2023-01-27T13:09:52;102232.78;;;-0.07;100.00
19789;BME280;10054;59.332;18.244;2023-01-27T13:12:27;102235.41;;;0.00;100.00
19789;BME280;10054;59.332;18.244;2023-01-27T13:14:57;102234.93;;;-0.10;100.00
19789;BME280;10054;59.332;18.244;2023-01-27T13:17:35;102234.01;;;-0.18;100.00
19789;BME280;10054;59.332;18.244;2023-01-27T13:20:20;102230.94;;;-0.23;100.00
19789;BME280;10054;59.332;18.244;2023-01-27T13:22:55;102233.05;;;-0.29;100.00
19789;BME280;10054;59.332;18.244;2023-01-27T13:25:26;102225.68;;;-0.32;100.00
19789;BME280;10054;59.332;18.244;2023-01-27T13:27:57;102223.92;;;-0.37;100.00
19789;BME280;10054;59.332;18.244;2023-01-27T13:30:35;102215.69;;;-0.39;100.00
19789;BME280;10054;59.332;18.244;2023-01-27T13:33:12;102223.89;;;-0.40;100.00
19789;BME280;10054;59.332;18.244;2023-01-27T13:35:43;102230.37;;;-0.40;100.00
19789;BME280;10054;59.332;18.244;2023-01-27T13:38:32;102228.64;;;-0.41;100.00
19789;BME280;10054;59.332;18.244;2023-01-27T13:41:03;102223.45;;;-0.41;100.00
19789;BME280;10054;59.332;18.244;2023-01-27T13:43:37;102223.44;;;-0.42;100.00
19789;BME280;10054;59.332;18.244;2023-01-27T13:46:24;102228.20;;;-0.42;100.00
19789;BME280;10054;59.332;18.244;2023-01-27T13:49:05;102233.80;;;-0.44;100.00
19789;BME280;10054;59.332;18.244;2023-01-27T13:51:33;102229.87;;;-0.47;100.00
19789;BME280;10054;59.332;18.244;2023-01-27T13:54:03;102227.72;;;-0.47;100.00
19789;BME280;10054;59.332;18.244;2023-01-27T14:10:27;102210.91;;;-0.43;100.00
19789;BME280;10054;59.332;18.244;2023-01-27T14:13:02;102214.73;;;-0.50;100.00
19789;BME280;10054;59.332;18.244;2023-01-27T14:18:18;102203.80;;;-0.65;100.00